createdAt,value
2023-02-26T00:01:00.087Z,98905.94
2023-02-26T00:03:43.657Z,98908.77
2023-02-26T00:06:17.132Z,98913.29
2023-02-26T00:08:51.090Z,98917.41
2023-02-26T00:11:26.077Z,98920.49
2023-02-26T00:14:00.715Z,98924.90
2023-02-26T00:16:37.328Z,98929.52
2023-02-26T00:19:13.540Z,98933.66
2023-02-26T00:21:48.416Z,98934.58
2023-02-26T00:24:22.137Z,98939.70
2023-02-26T00:26:55.936Z,98948.41
2023-02-26T00:29:30.570Z,98949.69
2023-02-26T00:32:04.995Z,98950.72
2023-02-26T00:34:42.588Z,98956.02
2023-02-26T00:37:30.255Z,98959.91
2023-02-26T00:40:18.118Z,98961.05
2023-02-26T00:42:53.217Z,98962.16
2023-02-26T00:45:27.984Z,98967.11
2023-02-26T00:48:17.337Z,98971.81
2023-02-26T00:50:58.899Z,98978.94
2023-02-26T00:53:37.810Z,98983.02
2023-02-26T00:56:11.564Z,98985.02
2023-02-26T00:58:45.079Z,98985.02
2023-02-26T01:01:19.242Z,98983.54
2023-02-26T01:03:53.986Z,98989.89
2023-02-26T01:06:30.364Z,98994.38
2023-02-26T01:09:10.608Z,98999.05
2023-02-26T01:11:45.329Z,99002.70
2023-02-26T01:14:20.051Z,99003.11
2023-02-26T01:16:59.904Z,99005.97
2023-02-26T01:19:42.080Z,99014.36
2023-02-26T01:22:21.428Z,99020.93
2023-02-26T01:25:01.599Z,99025.27
2023-02-26T01:27:36.340Z,99030.86
2023-02-26T01:30:12.355Z,99036.13
2023-02-26T01:32:50.645Z,99038.01
2023-02-26T01:35:41.579Z,99045.47
2023-02-26T01:38:35.386Z,99055.05
2023-02-26T01:41:31.100Z,99060.58
2023-02-26T01:44:21.577Z,99062.96
2023-02-26T01:47:11.506Z,99069.43
2023-02-26T01:49:47.867Z,99072.95
2023-02-26T01:53:06.655Z,99077.02
2023-02-26T01:55:43.078Z,99081.86
2023-02-26T01:58:17.472Z,99090.73
2023-02-26T02:00:52.491Z,99102.51
2023-02-26T02:03:27.904Z,99110.17
2023-02-26T02:06:05.787Z,99118.61
2023-02-26T02:08:40.011Z,99130.22
2023-02-26T02:11:15.342Z,99134.34
2023-02-26T02:14:03.055Z,99138.86
2023-02-26T02:16:44.410Z,99142.17
2023-02-26T02:19:36.168Z,99147.05
2023-02-26T02:22:36.495Z,99153.58
2023-02-26T02:25:31.440Z,99158.43
2023-02-26T02:28:18.088Z,99165.73
2023-02-26T02:31:03.787Z,99174.76
2023-02-26T02:33:44.169Z,99177.27
2023-02-26T02:36:25.791Z,99179.95
2023-02-26T02:39:06.828Z,99179.68
2023-02-26T02:41:46.060Z,99183.14
2023-02-26T02:44:23.437Z,99183.09
2023-02-26T02:46:59.771Z,99184.30
2023-02-26T02:49:38.247Z,99189.20
2023-02-26T02:52:19.897Z,99190.75
2023-02-26T02:55:00.656Z,99191.77
2023-02-26T02:57:39.334Z,99194.69
2023-02-26T03:00:19.994Z,99195.05
2023-02-26T03:03:00.252Z,99197.95
2023-02-26T03:05:34.467Z,99204.67
2023-02-26T03:08:12.604Z,99209.69
2023-02-26T03:10:46.947Z,99217.00
2023-02-26T03:13:22.417Z,99226.07
2023-02-26T03:16:10.796Z,99231.70
2023-02-26T03:19:00.318Z,99237.91
2023-02-26T03:21:56.041Z,99243.77
2023-02-26T03:24:57.565Z,99253.20
2023-02-26T03:27:37.503Z,99259.30
2023-02-26T03:30:18.085Z,99270.59
2023-02-26T03:33:00.478Z,99279.05
2023-02-26T03:35:45.004Z,99282.71
2023-02-26T03:38:25.497Z,99285.17
2023-02-26T03:41:05.202Z,99284.73
2023-02-26T03:43:43.836Z,99286.98
2023-02-26T03:46:23.195Z,99289.29
2023-02-26T03:49:00.187Z,99293.09
2023-02-26T03:51:35.665Z,99295.15
2023-02-26T03:54:48.598Z,99304.59
2023-02-26T03:57:42.057Z,99311.24
2023-02-26T04:00:34.150Z,99311.58
2023-02-26T04:03:15.444Z,99310.98
2023-02-26T04:05:52.433Z,99314.23
2023-02-26T04:08:27.374Z,99316.56
2023-02-26T04:11:08.544Z,99319.35
2023-02-26T04:13:42.600Z,99327.46
2023-02-26T04:16:17.028Z,99333.94
2023-02-26T04:18:50.741Z,99341.48
2023-02-26T04:21:25.528Z,99341.36
2023-02-26T04:23:59.279Z,99346.86
2023-02-26T04:26:33.067Z,99352.27
2023-02-26T04:29:06.782Z,99350.27
2023-02-26T04:31:40.441Z,99352.56
2023-02-26T04:34:13.624Z,99353.43
2023-02-26T04:36:47.435Z,99357.16
2023-02-26T04:39:21.391Z,99356.54
2023-02-26T04:41:55.103Z,99359.96
2023-02-26T04:44:28.648Z,99362.11
2023-02-26T04:47:02.790Z,99361.84
2023-02-26T04:49:37.812Z,99366.95
2023-02-26T04:52:11.390Z,99368.05
2023-02-26T04:54:45.231Z,99372.36
2023-02-26T04:57:21.425Z,99381.84
2023-02-26T04:59:54.861Z,99383.13
2023-02-26T05:02:32.992Z,99386.16
2023-02-26T05:05:07.576Z,99390.10
2023-02-26T05:07:41.025Z,99390.04
2023-02-26T05:10:15.520Z,99399.79
2023-02-26T05:12:48.777Z,99405.43
2023-02-26T05:15:23.203Z,99408.33
2023-02-26T05:17:56.600Z,99413.80
2023-02-26T05:20:30.363Z,99417.27
2023-02-26T05:23:05.321Z,99419.16
2023-02-26T05:25:38.878Z,99426.45
2023-02-26T05:28:13.046Z,99426.45
2023-02-26T05:30:46.724Z,99430.80
2023-02-26T05:33:20.711Z,99434.36
2023-02-26T05:35:54.117Z,99439.89
2023-02-26T05:38:27.939Z,99446.83
2023-02-26T05:41:03.188Z,99452.66
2023-02-26T05:43:36.737Z,99461.82
2023-02-26T05:46:10.649Z,99468.85
2023-02-26T05:48:45.907Z,99474.04
2023-02-26T05:51:19.807Z,99477.87
2023-02-26T05:53:53.552Z,99491.73
2023-02-26T05:56:27.424Z,99497.39
2023-02-26T05:59:01.677Z,99507.23
2023-02-26T06:01:37.579Z,99513.61
2023-02-26T06:04:11.428Z,99519.02
2023-02-26T06:06:44.925Z,99525.52
2023-02-26T06:09:18.772Z,99526.66
2023-02-26T06:11:52.624Z,99536.30
2023-02-26T06:14:26.522Z,99542.70
2023-02-26T06:16:59.983Z,99547.27
2023-02-26T06:19:33.401Z,99553.23
2023-02-26T06:22:07.286Z,99556.78
2023-02-26T06:24:41.033Z,99561.52
2023-02-26T06:27:14.744Z,99567.73
2023-02-26T06:29:48.633Z,99570.97
2023-02-26T06:32:22.077Z,99577.98
2023-02-26T06:34:56.459Z,99583.11
2023-02-26T06:37:30.906Z,99592.80
2023-02-26T06:40:05.175Z,99596.11
2023-02-26T06:42:38.835Z,99596.52
2023-02-26T06:45:13.641Z,99600.98
2023-02-26T06:47:47.077Z,99605.93
2023-02-26T06:50:22.152Z,99609.96
2023-02-26T06:52:56.040Z,99613.27
2023-02-26T06:55:29.869Z,99616.48
2023-02-26T06:58:03.789Z,99621.36
2023-02-26T07:00:38.281Z,99627.45
2023-02-26T07:03:15.008Z,99633.98
2023-02-26T07:05:48.409Z,99643.48
2023-02-26T07:08:22.201Z,99646.74
2023-02-26T07:10:56.221Z,99657.77
2023-02-26T07:13:30.206Z,99662.14
2023-02-26T07:16:03.888Z,99666.89
2023-02-26T07:18:38.015Z,99673.73
2023-02-26T07:21:11.763Z,99676.30
2023-02-26T07:23:45.437Z,99680.98
2023-02-26T07:26:19.355Z,99680.70
2023-02-26T07:28:52.846Z,99681.08
2023-02-26T07:31:27.028Z,99684.13
2023-02-26T07:34:00.903Z,99693.21
2023-02-26T07:36:34.606Z,99698.34
2023-02-26T07:39:08.372Z,99705.81
2023-02-26T07:41:42.430Z,99704.94
2023-02-26T07:44:21.465Z,99708.70
2023-02-26T07:46:55.061Z,99715.64
2023-02-26T07:49:29.023Z,99719.87
2023-02-26T07:52:02.709Z,99724.17
2023-02-26T07:54:36.716Z,99728.73
2023-02-26T07:57:10.608Z,99731.44
2023-02-26T07:59:44.151Z,99735.37
2023-02-26T08:02:19.152Z,99743.58
2023-02-26T08:04:53.193Z,99744.48
2023-02-26T08:07:27.018Z,99745.98
2023-02-26T08:10:00.759Z,99749.62
2023-02-26T08:12:34.781Z,99752.33
2023-02-26T08:15:09.898Z,99757.87
2023-02-26T08:17:43.633Z,99763.08
2023-02-26T08:20:17.795Z,99770.92
2023-02-26T08:22:52.444Z,99777.58
2023-02-26T08:25:26.043Z,99782.29
2023-02-26T08:27:59.418Z,99788.70
2023-02-26T08:30:33.336Z,99794.02
2023-02-26T08:33:07.277Z,99797.41
2023-02-26T08:35:40.886Z,99802.34
2023-02-26T08:38:14.551Z,99804.08
2023-02-26T08:40:50.403Z,99804.41
2023-02-26T08:43:24.971Z,99803.88
2023-02-26T08:46:00.362Z,99811.22
2023-02-26T08:48:33.796Z,99819.18
2023-02-26T08:51:08.122Z,99822.30
2023-02-26T08:53:41.935Z,99828.46
2023-02-26T08:56:15.807Z,99837.79
2023-02-26T08:58:49.491Z,99842.70
2023-02-26T09:01:23.452Z,99852.56
2023-02-26T09:03:57.483Z,99859.48
2023-02-26T09:06:31.731Z,99864.63
2023-02-26T09:09:05.162Z,99870.48
2023-02-26T09:11:38.853Z,99875.85
2023-02-26T09:14:12.495Z,99882.46
2023-02-26T09:16:47.156Z,99887.46
2023-02-26T09:19:23.795Z,99890.48
2023-02-26T09:21:58.407Z,99891.64
2023-02-26T09:24:36.094Z,99893.59
2023-02-26T09:27:09.836Z,99892.05
2023-02-26T09:29:43.783Z,99894.84
2023-02-26T09:32:17.836Z,99901.52
2023-02-26T09:34:51.509Z,99905.00
2023-02-26T09:37:25.640Z,99910.38
2023-02-26T09:39:59.870Z,99911.23
2023-02-26T09:42:54.424Z,99915.09
2023-02-26T09:45:35.062Z,99923.63
2023-02-26T09:48:14.095Z,99932.11
2023-02-26T09:50:51.600Z,99935.02
2023-02-26T09:53:28.365Z,99943.47
2023-02-26T09:56:08.772Z,99944.52
2023-02-26T09:58:43.531Z,99948.49
2023-02-26T10:01:23.205Z,99951.50
2023-02-26T10:04:09.028Z,99950.67
2023-02-26T10:07:00.006Z,99950.60
2023-02-26T10:09:50.138Z,99955.30
2023-02-26T10:12:26.569Z,99961.36
2023-02-26T10:15:04.489Z,99965.81
2023-02-26T10:17:42.565Z,99969.65
2023-02-26T10:20:23.091Z,99969.59
2023-02-26T10:23:04.032Z,99971.54
2023-02-26T10:25:42.996Z,99975.34
2023-02-26T10:28:41.366Z,99975.84
2023-02-26T10:31:20.594Z,99979.06
2023-02-26T10:34:09.478Z,99984.73
2023-02-26T10:36:51.421Z,99988.63
2023-02-26T10:39:34.225Z,99995.98
2023-02-26T10:42:19.365Z,99999.30
2023-02-26T10:45:08.371Z,100002.55
2023-02-26T10:47:48.438Z,100008.17
2023-02-26T10:50:25.235Z,100011.27
2023-02-26T10:53:01.138Z,100016.16
2023-02-26T10:55:39.621Z,100024.55
2023-02-26T10:58:16.376Z,100028.16
2023-02-26T11:00:54.143Z,100028.73
2023-02-26T11:03:36.026Z,100030.64
2023-02-26T11:06:22.001Z,100031.80
2023-02-26T11:08:59.549Z,100032.23
2023-02-26T11:11:47.664Z,100035.39
2023-02-26T11:14:22.390Z,100035.59
2023-02-26T11:17:00.547Z,100042.08
2023-02-26T11:19:38.586Z,100049.16
2023-02-26T11:22:17.296Z,100052.29
2023-02-26T11:24:51.362Z,100053.29
2023-02-26T11:27:27.993Z,100054.36
2023-02-26T11:30:07.475Z,100056.85
2023-02-26T11:32:42.339Z,100060.37
2023-02-26T11:35:20.847Z,100061.60
2023-02-26T11:38:00.272Z,100063.64
2023-02-26T11:40:41.169Z,100072.16
2023-02-26T11:43:19.865Z,100075.02
2023-02-26T11:45:55.427Z,100075.69
2023-02-26T11:48:37.638Z,100083.42
2023-02-26T11:51:16.789Z,100082.63
2023-02-26T11:53:56.600Z,100089.97
2023-02-26T11:56:40.710Z,100092.59
2023-02-26T11:59:22.924Z,100094.90
2023-02-26T12:01:57.607Z,100099.20
2023-02-26T12:04:33.389Z,100104.88
2023-02-26T12:07:14.159Z,100111.78
2023-02-26T12:09:50.167Z,100118.91
2023-02-26T12:12:47.422Z,100124.11
2023-02-26T12:15:30.046Z,100125.73
2023-02-26T12:18:28.798Z,100129.67
2023-02-26T12:21:17.005Z,100130.50
2023-02-26T12:24:27.830Z,100132.73
2023-02-26T12:27:08.051Z,100136.26
2023-02-26T12:30:10.824Z,100138.42
2023-02-26T12:33:06.502Z,100138.50
2023-02-26T12:35:53.140Z,100139.15
2023-02-26T12:38:43.102Z,100143.38
2023-02-26T12:41:40.968Z,100140.94
2023-02-26T12:44:32.555Z,100144.09
2023-02-26T12:47:26.727Z,100147.56
2023-02-26T12:50:14.122Z,100149.66
2023-02-26T12:53:11.966Z,100148.27
2023-02-26T12:56:01.684Z,100153.06
2023-02-26T12:58:57.391Z,100159.95
2023-02-26T13:02:01.790Z,100159.77
2023-02-26T13:05:02.865Z,100161.96
2023-02-26T13:08:03.453Z,100168.95
2023-02-26T13:10:56.064Z,100170.82
2023-02-26T13:13:47.275Z,100170.02
2023-02-26T13:16:35.682Z,100161.95
2023-02-26T13:19:22.574Z,100165.89
2023-02-26T13:22:02.000Z,100173.60
2023-02-26T13:24:45.468Z,100177.21
2023-02-26T13:27:26.832Z,100178.80
2023-02-26T13:30:21.889Z,100177.17
2023-02-26T13:33:09.393Z,100183.23
2023-02-26T13:35:48.311Z,100188.29
2023-02-26T13:38:33.513Z,100192.48
2023-02-26T13:41:18.287Z,100196.17
2023-02-26T13:44:10.189Z,100199.77
2023-02-26T13:47:01.384Z,100198.77
2023-02-26T13:49:51.573Z,100196.33
2023-02-26T13:52:33.993Z,100201.91
2023-02-26T13:55:38.675Z,100205.20
2023-02-26T13:58:37.972Z,100208.91
2023-02-26T14:01:17.391Z,100210.77
2023-02-26T14:03:56.282Z,100211.07
2023-02-26T14:06:49.052Z,100206.58
2023-02-26T14:09:47.552Z,100208.93
2023-02-26T14:12:39.330Z,100215.08
2023-02-26T14:15:39.655Z,100221.08
2023-02-26T14:18:32.789Z,100215.98
2023-02-26T14:21:41.498Z,100215.20
2023-02-26T14:24:33.027Z,100221.59
2023-02-26T14:27:41.630Z,100228.73
2023-02-26T14:30:36.569Z,100230.83
2023-02-26T14:33:31.281Z,100235.11
2023-02-26T14:36:08.359Z,100237.09
2023-02-26T14:38:45.532Z,100239.63
2023-02-26T14:41:33.456Z,100242.48
2023-02-26T14:44:11.747Z,100246.15
2023-02-26T14:46:47.727Z,100250.88
2023-02-26T14:49:31.633Z,100255.73
2023-02-26T14:52:39.631Z,100264.02
2023-02-26T14:55:36.242Z,100267.48
2023-02-26T14:58:28.895Z,100266.25
2023-02-26T15:01:25.635Z,100266.90
2023-02-26T15:04:28.812Z,100271.54
2023-02-26T15:07:41.330Z,100272.73
2023-02-26T15:10:42.492Z,100272.70
2023-02-26T15:13:43.404Z,100274.09
2023-02-26T15:16:31.984Z,100280.75
2023-02-26T15:19:24.417Z,100288.08
2023-02-26T15:22:20.039Z,100289.98
2023-02-26T15:24:56.376Z,100290.26
2023-02-26T15:27:35.683Z,100293.40
2023-02-26T15:30:16.499Z,100296.88
2023-02-26T15:32:59.781Z,100306.10
2023-02-26T15:35:37.946Z,100313.02
2023-02-26T15:38:24.118Z,100314.27
2023-02-26T15:41:08.736Z,100311.63
2023-02-26T15:43:49.446Z,100314.05
2023-02-26T15:46:29.790Z,100319.00
2023-02-26T15:49:12.840Z,100322.95
2023-02-26T15:51:50.062Z,100322.84
2023-02-26T15:54:27.690Z,100329.94
2023-02-26T15:57:06.743Z,100336.65
2023-02-26T15:59:51.698Z,100343.69
2023-02-26T16:02:29.573Z,100347.35
2023-02-26T16:05:06.705Z,100350.84
2023-02-26T16:07:43.203Z,100358.87
2023-02-26T16:10:35.657Z,100362.17
2023-02-26T16:13:18.564Z,100366.56
2023-02-26T16:15:54.813Z,100363.43
2023-02-26T16:18:34.058Z,100367.95
2023-02-26T16:21:28.868Z,100371.02
2023-02-26T16:24:07.990Z,100374.94
2023-02-26T16:26:51.335Z,100379.42
2023-02-26T16:29:30.902Z,100384.69
2023-02-26T16:32:17.369Z,100387.98
2023-02-26T16:34:58.352Z,100391.48
2023-02-26T16:37:39.391Z,100395.34
2023-02-26T16:40:27.650Z,100397.79
2023-02-26T16:43:10.820Z,100397.05
2023-02-26T16:46:01.533Z,100405.16
2023-02-26T16:51:44.483Z,100413.63
2023-02-26T16:54:28.209Z,100416.04
2023-02-26T16:57:09.662Z,100421.73
2023-02-26T16:59:52.813Z,100423.60
2023-02-26T17:02:31.984Z,100425.15
2023-02-26T17:05:11.861Z,100433.42
2023-02-26T17:07:59.438Z,100441.39
2023-02-26T17:10:48.434Z,100443.27
2023-02-26T17:13:30.490Z,100442.70
2023-02-26T17:16:09.210Z,100448.81
2023-02-26T17:18:46.515Z,100450.25
2023-02-26T17:21:22.935Z,100454.34
2023-02-26T17:24:03.612Z,100457.68
2023-02-26T17:26:41.663Z,100458.89
2023-02-26T17:29:24.819Z,100466.63
2023-02-26T17:32:03.312Z,100475.20
2023-02-26T17:34:44.109Z,100479.39
2023-02-26T17:37:22.718Z,100485.57
2023-02-26T17:40:00.788Z,100486.73
2023-02-26T17:42:37.408Z,100490.31
2023-02-26T17:45:15.368Z,100497.61
2023-02-26T17:47:51.907Z,100500.95
2023-02-26T17:50:37.530Z,100503.94
2023-02-26T17:53:14.743Z,100508.31
2023-02-26T17:56:00.294Z,100512.27
2023-02-26T17:58:37.955Z,100510.95
2023-02-26T18:01:15.087Z,100512.38
2023-02-26T18:03:51.578Z,100516.73
2023-02-26T18:06:41.074Z,100520.66
2023-02-26T18:09:21.343Z,100525.48
2023-02-26T18:12:02.944Z,100528.84
2023-02-26T18:14:50.188Z,100533.20
2023-02-26T18:17:41.473Z,100534.46
2023-02-26T18:20:22.768Z,100535.60
2023-02-26T18:22:59.700Z,100538.33
2023-02-26T18:25:37.715Z,100544.23
2023-02-26T18:28:23.027Z,100544.38
2023-02-26T18:31:00.938Z,100550.35
2023-02-26T18:33:39.032Z,100551.79
2023-02-26T18:36:21.596Z,100551.64
2023-02-26T18:39:03.216Z,100554.00
2023-02-26T18:41:40.540Z,100558.48
2023-02-26T18:44:20.039Z,100562.08
2023-02-26T18:46:57.877Z,100566.52
2023-02-26T18:49:35.515Z,100567.70
2023-02-26T18:52:15.120Z,100572.77
2023-02-26T18:54:57.691Z,100575.57
2023-02-26T18:57:33.537Z,100580.45
2023-02-26T19:00:15.009Z,100583.80
2023-02-26T19:02:56.965Z,100584.31
2023-02-26T19:05:41.466Z,100589.45
2023-02-26T19:08:19.957Z,100592.52
2023-02-26T19:10:56.776Z,100597.34
2023-02-26T19:13:34.603Z,100598.77
2023-02-26T19:16:15.710Z,100605.98
2023-02-26T19:18:51.748Z,100613.02
2023-02-26T19:21:35.255Z,100612.30
2023-02-26T19:24:23.828Z,100612.86
2023-02-26T19:27:01.288Z,100613.18
2023-02-26T19:29:40.629Z,100614.36
2023-02-26T19:32:19.976Z,100617.14
2023-02-26T19:34:57.840Z,100621.13
2023-02-26T19:37:34.947Z,100619.69
2023-02-26T19:40:19.062Z,100619.90
2023-02-26T19:43:00.841Z,100623.15
2023-02-26T19:45:39.367Z,100626.75
2023-02-26T19:48:21.004Z,100630.98
2023-02-26T19:51:00.735Z,100631.58
2023-02-26T19:53:37.210Z,100638.73
2023-02-26T19:56:15.132Z,100640.60
2023-02-26T19:58:52.398Z,100640.09
2023-02-26T20:01:31.826Z,100642.21
2023-02-26T20:04:14.831Z,100643.98
2023-02-26T20:06:51.957Z,100646.50
2023-02-26T20:09:28.856Z,100648.91
2023-02-26T20:12:09.333Z,100656.80
2023-02-26T20:14:46.376Z,100661.27
2023-02-26T20:17:25.216Z,100667.77
2023-02-26T20:20:03.729Z,100667.23
2023-02-26T20:22:38.674Z,100668.23
2023-02-26T20:25:18.334Z,100672.20
2023-02-26T20:27:54.665Z,100672.86
2023-02-26T20:30:32.804Z,100673.67
2023-02-26T20:33:13.230Z,100683.98
2023-02-26T20:35:50.808Z,100685.77
2023-02-26T20:38:32.387Z,100689.08
2023-02-26T20:41:14.650Z,100692.24
2023-02-26T20:43:52.008Z,100693.16
2023-02-26T20:46:27.699Z,100695.10
2023-02-26T20:49:06.404Z,100699.18
2023-02-26T20:51:44.194Z,100702.04
2023-02-26T20:54:23.271Z,100704.61
2023-02-26T20:56:58.606Z,100700.03
2023-02-26T20:59:34.897Z,100699.62
2023-02-26T21:02:14.856Z,100705.85
2023-02-26T21:04:51.405Z,100708.21
2023-02-26T21:07:28.966Z,100709.34
2023-02-26T21:10:06.238Z,100707.64
2023-02-26T21:12:54.982Z,100712.77
2023-02-26T21:15:34.038Z,100714.99
2023-02-26T21:18:14.436Z,100718.52
2023-02-26T21:20:57.078Z,100721.37
2023-02-26T21:23:32.733Z,100723.38
2023-02-26T21:26:09.795Z,100725.95
2023-02-26T21:28:54.568Z,100729.34
2023-02-26T21:31:31.391Z,100731.27
2023-02-26T21:34:32.614Z,100734.52
2023-02-26T21:37:07.044Z,100737.17
2023-02-26T21:39:43.547Z,100738.44
2023-02-26T21:42:18.379Z,100742.02
2023-02-26T21:44:52.608Z,100742.20
2023-02-26T21:47:28.562Z,100741.89
2023-02-26T21:50:03.849Z,100745.36
2023-02-26T21:52:38.252Z,100752.72
2023-02-26T21:55:13.232Z,100753.00
2023-02-26T21:57:47.321Z,100752.48
2023-02-26T22:00:23.834Z,100753.21
2023-02-26T22:02:57.794Z,100755.52
2023-02-26T22:05:31.715Z,100756.27
2023-02-26T22:08:05.929Z,100757.80
2023-02-26T22:10:39.885Z,100760.39
2023-02-26T22:13:14.330Z,100764.02
2023-02-26T22:15:48.420Z,100767.24
2023-02-26T22:18:22.176Z,100773.27
2023-02-26T22:20:55.921Z,100774.36
2023-02-26T22:23:29.895Z,100775.54
2023-02-26T22:26:03.251Z,100777.56
2023-02-26T22:28:36.997Z,100775.71
2023-02-26T22:31:10.785Z,100777.83
2023-02-26T22:33:44.590Z,100777.23
2023-02-26T22:36:18.076Z,100783.47
2023-02-26T22:38:51.903Z,100787.62
2023-02-26T22:41:25.494Z,100790.60
2023-02-26T22:43:58.957Z,100789.36
2023-02-26T22:46:33.116Z,100788.20
2023-02-26T22:49:07.230Z,100790.05
2023-02-26T22:51:41.111Z,100788.23
2023-02-26T22:54:14.933Z,100793.52
2023-02-26T22:56:48.681Z,100795.50
2023-02-26T22:59:22.510Z,100795.70
2023-02-26T23:01:56.030Z,100803.39
2023-02-26T23:04:29.908Z,100804.20
2023-02-26T23:07:03.327Z,100802.80
2023-02-26T23:09:37.651Z,100807.64
2023-02-26T23:12:11.564Z,100811.67
2023-02-26T23:14:45.561Z,100813.89
2023-02-26T23:17:19.287Z,100810.38
2023-02-26T23:19:53.277Z,100808.58
2023-02-26T23:22:27.402Z,100808.96
2023-02-26T23:25:01.268Z,100814.27
2023-02-26T23:27:35.698Z,100829.79
2023-02-26T23:30:11.247Z,100838.09
2023-02-26T23:32:45.343Z,100841.15
2023-02-26T23:35:19.355Z,100842.87
2023-02-26T23:37:53.076Z,100844.70
2023-02-26T23:40:26.716Z,100842.55
2023-02-26T23:43:00.445Z,100844.26
2023-02-26T23:45:33.946Z,100839.58
2023-02-26T23:48:08.060Z,100838.66
2023-02-26T23:50:42.340Z,100835.91
2023-02-26T23:53:16.179Z,100839.42
2023-02-26T23:55:52.186Z,100839.21
2023-02-26T23:58:26.191Z,100847.24
